sensor_id;sensor_type;location;lat;lon;timestamp;P1;durP1;ratioP1;P2;durP2;ratioP2
9968;SDS011;5025;48.890;9.278;2023-08-06T00:01:05;2.97;;;2.07;;
9968;SDS011;5025;48.890;9.278;2023-08-06T00:03:31;2.33;;;2.23;;
9968;SDS011;5025;48.890;9.278;2023-08-06T00:05:56;2.47;;;2.37;;
9968;SDS011;5025;48.890;9.278;2023-08-06T00:08:21;2.30;;;2.20;;
9968;SDS011;5025;48.890;9.278;2023-08-06T00:10:47;2.70;;;2.60;;
9968;SDS011;5025;48.890;9.278;2023-08-06T00:13:13;2.30;;;2.20;;
9968;SDS011;5025;48.890;9.278;2023-08-06T00:15:38;1.80;;;1.80;;
9968;SDS011;5025;48.890;9.278;2023-08-06T00:18:03;2.10;;;2.00;;
9968;SDS011;5025;48.890;9.278;2023-08-06T00:20:29;2.40;;;2.30;;
9968;SDS011;5025;48.890;9.278;2023-08-06T00:22:54;2.10;;;2.00;;
9968;SDS011;5025;48.890;9.278;2023-08-06T00:25:19;2.10;;;2.00;;
9968;SDS011;5025;48.890;9.278;2023-08-06T00:27:44;2.30;;;2.20;;
9968;SDS011;5025;48.890;9.278;2023-08-06T00:30:10;2.50;;;2.30;;
9968;SDS011;5025;48.890;9.278;2023-08-06T00:32:35;2.17;;;2.07;;
9968;SDS011;5025;48.890;9.278;2023-08-06T00:35:01;2.20;;;2.10;;
9968;SDS011;5025;48.890;9.278;2023-08-06T00:37:26;2.20;;;2.10;;
9968;SDS011;5025;48.890;9.278;2023-08-06T00:39:51;2.10;;;2.00;;
9968;SDS011;5025;48.890;9.278;2023-08-06T00:42:16;2.23;;;2.13;;
9968;SDS011;5025;48.890;9.278;2023-08-06T00:44:45;2.20;;;2.10;;
9968;SDS011;5025;48.890;9.278;2023-08-06T00:47:11;2.10;;;2.00;;
9968;SDS011;5025;48.890;9.278;2023-08-06T00:49:36;2.10;;;2.00;;
9968;SDS011;5025;48.890;9.278;2023-08-06T00:52:02;2.07;;;1.97;;
9968;SDS011;5025;48.890;9.278;2023-08-06T00:54:29;2.20;;;2.10;;
9968;SDS011;5025;48.890;9.278;2023-08-06T00:56:56;2.30;;;2.10;;
9968;SDS011;5025;48.890;9.278;2023-08-06T00:59:22;2.30;;;2.20;;
9968;SDS011;5025;48.890;9.278;2023-08-06T01:01:48;2.00;;;1.90;;
9968;SDS011;5025;48.890;9.278;2023-08-06T01:04:15;2.20;;;2.10;;
9968;SDS011;5025;48.890;9.278;2023-08-06T01:06:45;2.30;;;2.20;;
9968;SDS011;5025;48.890;9.278;2023-08-06T01:09:23;2.33;;;2.23;;
9968;SDS011;5025;48.890;9.278;2023-08-06T01:14:55;2.40;;;2.30;;
9968;SDS011;5025;48.890;9.278;2023-08-06T01:17:25;2.77;;;2.57;;
9968;SDS011;5025;48.890;9.278;2023-08-06T01:19:51;2.90;;;2.70;;
9968;SDS011;5025;48.890;9.278;2023-08-06T01:22:17;2.83;;;2.67;;
9968;SDS011;5025;48.890;9.278;2023-08-06T01:24:43;2.63;;;2.53;;
9968;SDS011;5025;48.890;9.278;2023-08-06T01:27:14;2.60;;;2.50;;
9968;SDS011;5025;48.890;9.278;2023-08-06T01:29:49;3.27;;;2.97;;
9968;SDS011;5025;48.890;9.278;2023-08-06T01:32:42;3.40;;;3.20;;
9968;SDS011;5025;48.890;9.278;2023-08-06T01:35:09;3.40;;;3.20;;
9968;SDS011;5025;48.890;9.278;2023-08-06T01:37:37;3.30;;;3.10;;
9968;SDS011;5025;48.890;9.278;2023-08-06T01:40:10;3.57;;;3.37;;
9968;SDS011;5025;48.890;9.278;2023-08-06T01:42:36;3.50;;;3.30;;
9968;SDS011;5025;48.890;9.278;2023-08-06T01:45:02;3.70;;;3.47;;
9968;SDS011;5025;48.890;9.278;2023-08-06T01:47:27;3.23;;;3.10;;
9968;SDS011;5025;48.890;9.278;2023-08-06T01:49:53;3.50;;;3.20;;
9968;SDS011;5025;48.890;9.278;2023-08-06T01:52:18;3.33;;;3.23;;
9968;SDS011;5025;48.890;9.278;2023-08-06T01:54:43;3.40;;;3.20;;
9968;SDS011;5025;48.890;9.278;2023-08-06T01:57:09;3.40;;;3.20;;
9968;SDS011;5025;48.890;9.278;2023-08-06T01:59:34;3.37;;;3.17;;
9968;SDS011;5025;48.890;9.278;2023-08-06T02:01:59;3.60;;;3.40;;
9968;SDS011;5025;48.890;9.278;2023-08-06T02:04:24;3.40;;;3.20;;
9968;SDS011;5025;48.890;9.278;2023-08-06T02:06:50;3.40;;;3.20;;
9968;SDS011;5025;48.890;9.278;2023-08-06T02:09:15;3.90;;;3.60;;
9968;SDS011;5025;48.890;9.278;2023-08-06T02:11:40;3.73;;;3.53;;
9968;SDS011;5025;48.890;9.278;2023-08-06T02:14:05;3.80;;;3.40;;
9968;SDS011;5025;48.890;9.278;2023-08-06T02:16:31;3.90;;;3.53;;
9968;SDS011;5025;48.890;9.278;2023-08-06T02:18:56;3.70;;;3.40;;
9968;SDS011;5025;48.890;9.278;2023-08-06T02:21:21;3.50;;;3.40;;
9968;SDS011;5025;48.890;9.278;2023-08-06T02:23:46;3.20;;;3.00;;
9968;SDS011;5025;48.890;9.278;2023-08-06T02:26:11;3.20;;;2.93;;
9968;SDS011;5025;48.890;9.278;2023-08-06T02:28:37;3.20;;;3.00;;
9968;SDS011;5025;48.890;9.278;2023-08-06T02:31:02;3.20;;;3.00;;
9968;SDS011;5025;48.890;9.278;2023-08-06T02:33:27;2.93;;;2.73;;
9968;SDS011;5025;48.890;9.278;2023-08-06T02:36:02;2.97;;;2.80;;
9968;SDS011;5025;48.890;9.278;2023-08-06T02:38:29;2.80;;;2.60;;
9968;SDS011;5025;48.890;9.278;2023-08-06T02:40:55;3.07;;;2.73;;
9968;SDS011;5025;48.890;9.278;2023-08-06T02:43:20;2.90;;;2.70;;
9968;SDS011;5025;48.890;9.278;2023-08-06T02:45:45;2.90;;;2.70;;
9968;SDS011;5025;48.890;9.278;2023-08-06T02:48:11;3.07;;;2.77;;
9968;SDS011;5025;48.890;9.278;2023-08-06T02:50:39;2.80;;;2.70;;
9968;SDS011;5025;48.890;9.278;2023-08-06T02:53:06;3.00;;;2.80;;
9968;SDS011;5025;48.890;9.278;2023-08-06T02:55:32;2.93;;;2.80;;
9968;SDS011;5025;48.890;9.278;2023-08-06T02:57:58;2.80;;;2.60;;
9968;SDS011;5025;48.890;9.278;2023-08-06T03:00:24;2.50;;;2.40;;
9968;SDS011;5025;48.890;9.278;2023-08-06T03:02:49;3.10;;;2.90;;
9968;SDS011;5025;48.890;9.278;2023-08-06T03:05:14;3.10;;;2.90;;
9968;SDS011;5025;48.890;9.278;2023-08-06T03:07:40;3.10;;;2.90;;
9968;SDS011;5025;48.890;9.278;2023-08-06T03:10:05;3.00;;;2.90;;
9968;SDS011;5025;48.890;9.278;2023-08-06T03:12:30;3.07;;;2.87;;
9968;SDS011;5025;48.890;9.278;2023-08-06T03:14:56;2.93;;;2.73;;
9968;SDS011;5025;48.890;9.278;2023-08-06T03:17:21;2.87;;;2.67;;
9968;SDS011;5025;48.890;9.278;2023-08-06T03:19:46;2.67;;;2.57;;
9968;SDS011;5025;48.890;9.278;2023-08-06T03:22:11;2.80;;;2.70;;
9968;SDS011;5025;48.890;9.278;2023-08-06T03:24:37;2.70;;;2.60;;
9968;SDS011;5025;48.890;9.278;2023-08-06T03:27:02;3.13;;;2.90;;
9968;SDS011;5025;48.890;9.278;2023-08-06T03:29:27;2.80;;;2.60;;
9968;SDS011;5025;48.890;9.278;2023-08-06T03:31:53;3.27;;;3.07;;
9968;SDS011;5025;48.890;9.278;2023-08-06T03:34:18;2.90;;;2.70;;
9968;SDS011;5025;48.890;9.278;2023-08-06T03:36:43;3.10;;;2.90;;
9968;SDS011;5025;48.890;9.278;2023-08-06T03:39:08;2.80;;;2.70;;
9968;SDS011;5025;48.890;9.278;2023-08-06T03:41:34;2.60;;;2.40;;
9968;SDS011;5025;48.890;9.278;2023-08-06T03:43:59;2.30;;;2.20;;
9968;SDS011;5025;48.890;9.278;2023-08-06T03:46:27;2.37;;;2.27;;
9968;SDS011;5025;48.890;9.278;2023-08-06T03:48:53;2.93;;;2.77;;
9968;SDS011;5025;48.890;9.278;2023-08-06T03:51:18;2.27;;;2.17;;
9968;SDS011;5025;48.890;9.278;2023-08-06T03:53:43;2.30;;;2.20;;
9968;SDS011;5025;48.890;9.278;2023-08-06T03:56:08;2.30;;;2.20;;
9968;SDS011;5025;48.890;9.278;2023-08-06T03:58:33;2.20;;;2.10;;
9968;SDS011;5025;48.890;9.278;2023-08-06T04:00:59;2.40;;;2.30;;
9968;SDS011;5025;48.890;9.278;2023-08-06T04:03:25;2.17;;;2.07;;
9968;SDS011;5025;48.890;9.278;2023-08-06T04:05:50;2.37;;;2.27;;
9968;SDS011;5025;48.890;9.278;2023-08-06T04:08:15;2.17;;;2.07;;
9968;SDS011;5025;48.890;9.278;2023-08-06T04:10:40;2.10;;;2.00;;
9968;SDS011;5025;48.890;9.278;2023-08-06T04:13:06;2.40;;;2.30;;
9968;SDS011;5025;48.890;9.278;2023-08-06T04:15:33;2.30;;;2.20;;
9968;SDS011;5025;48.890;9.278;2023-08-06T04:17:58;2.40;;;2.30;;
9968;SDS011;5025;48.890;9.278;2023-08-06T04:20:24;2.40;;;2.20;;
9968;SDS011;5025;48.890;9.278;2023-08-06T04:22:49;2.13;;;2.03;;
9968;SDS011;5025;48.890;9.278;2023-08-06T04:25:14;2.60;;;2.37;;
9968;SDS011;5025;48.890;9.278;2023-08-06T04:27:40;2.20;;;2.10;;
9968;SDS011;5025;48.890;9.278;2023-08-06T04:30:07;2.13;;;2.03;;
9968;SDS011;5025;48.890;9.278;2023-08-06T04:32:32;2.10;;;2.00;;
9968;SDS011;5025;48.890;9.278;2023-08-06T04:34:57;2.10;;;2.00;;
9968;SDS011;5025;48.890;9.278;2023-08-06T04:37:23;2.37;;;2.27;;
9968;SDS011;5025;48.890;9.278;2023-08-06T04:39:48;2.20;;;2.10;;
9968;SDS011;5025;48.890;9.278;2023-08-06T04:42:13;2.50;;;2.30;;
9968;SDS011;5025;48.890;9.278;2023-08-06T04:44:39;2.60;;;2.40;;
9968;SDS011;5025;48.890;9.278;2023-08-06T04:47:04;2.57;;;2.37;;
9968;SDS011;5025;48.890;9.278;2023-08-06T04:49:29;2.37;;;2.27;;
9968;SDS011;5025;48.890;9.278;2023-08-06T04:51:55;2.23;;;2.13;;
9968;SDS011;5025;48.890;9.278;2023-08-06T04:54:20;2.10;;;2.00;;
9968;SDS011;5025;48.890;9.278;2023-08-06T04:56:45;2.03;;;1.93;;
9968;SDS011;5025;48.890;9.278;2023-08-06T04:59:10;2.03;;;1.93;;
9968;SDS011;5025;48.890;9.278;2023-08-06T05:01:36;2.30;;;2.03;;
9968;SDS011;5025;48.890;9.278;2023-08-06T05:04:01;2.40;;;2.23;;
9968;SDS011;5025;48.890;9.278;2023-08-06T05:06:26;2.30;;;2.20;;
9968;SDS011;5025;48.890;9.278;2023-08-06T05:08:51;2.10;;;2.00;;
9968;SDS011;5025;48.890;9.278;2023-08-06T05:11:17;2.20;;;2.10;;
9968;SDS011;5025;48.890;9.278;2023-08-06T05:13:42;2.23;;;2.13;;
9968;SDS011;5025;48.890;9.278;2023-08-06T05:16:07;2.03;;;1.93;;
9968;SDS011;5025;48.890;9.278;2023-08-06T05:18:32;2.20;;;2.10;;
9968;SDS011;5025;48.890;9.278;2023-08-06T05:20:59;2.13;;;2.03;;
9968;SDS011;5025;48.890;9.278;2023-08-06T05:23:24;2.30;;;2.17;;
9968;SDS011;5025;48.890;9.278;2023-08-06T05:25:49;1.90;;;1.80;;
9968;SDS011;5025;48.890;9.278;2023-08-06T05:28:15;2.23;;;2.13;;
9968;SDS011;5025;48.890;9.278;2023-08-06T05:30:40;2.10;;;2.00;;
9968;SDS011;5025;48.890;9.278;2023-08-06T05:33:05;2.10;;;2.00;;
9968;SDS011;5025;48.890;9.278;2023-08-06T05:35:31;2.30;;;2.10;;
9968;SDS011;5025;48.890;9.278;2023-08-06T05:37:56;2.00;;;1.90;;
9968;SDS011;5025;48.890;9.278;2023-08-06T05:40:21;2.00;;;1.90;;
9968;SDS011;5025;48.890;9.278;2023-08-06T05:42:47;2.10;;;2.00;;
9968;SDS011;5025;48.890;9.278;2023-08-06T05:45:12;2.10;;;2.00;;
9968;SDS011;5025;48.890;9.278;2023-08-06T05:47:37;2.30;;;2.20;;
9968;SDS011;5025;48.890;9.278;2023-08-06T05:50:02;2.40;;;2.30;;
9968;SDS011;5025;48.890;9.278;2023-08-06T05:52:28;2.27;;;2.10;;
9968;SDS011;5025;48.890;9.278;2023-08-06T05:54:53;2.10;;;1.90;;
9968;SDS011;5025;48.890;9.278;2023-08-06T05:57:20;2.60;;;2.40;;
9968;SDS011;5025;48.890;9.278;2023-08-06T05:59:45;2.20;;;2.00;;
9968;SDS011;5025;48.890;9.278;2023-08-06T06:02:10;2.20;;;2.00;;
9968;SDS011;5025;48.890;9.278;2023-08-06T06:04:36;1.93;;;1.83;;
9968;SDS011;5025;48.890;9.278;2023-08-06T06:07:02;2.10;;;1.90;;
9968;SDS011;5025;48.890;9.278;2023-08-06T06:09:27;1.73;;;1.63;;
9968;SDS011;5025;48.890;9.278;2023-08-06T06:11:52;1.63;;;1.53;;
9968;SDS011;5025;48.890;9.278;2023-08-06T06:14:18;1.70;;;1.60;;
9968;SDS011;5025;48.890;9.278;2023-08-06T06:16:44;2.00;;;1.80;;
9968;SDS011;5025;48.890;9.278;2023-08-06T06:19:10;1.70;;;1.60;;
9968;SDS011;5025;48.890;9.278;2023-08-06T06:21:36;1.73;;;1.63;;
9968;SDS011;5025;48.890;9.278;2023-08-06T06:24:02;1.77;;;1.67;;
9968;SDS011;5025;48.890;9.278;2023-08-06T06:26:28;1.60;;;1.50;;
9968;SDS011;5025;48.890;9.278;2023-08-06T06:28:55;1.80;;;1.70;;
9968;SDS011;5025;48.890;9.278;2023-08-06T06:31:20;2.03;;;1.70;;
9968;SDS011;5025;48.890;9.278;2023-08-06T06:33:45;1.73;;;1.63;;
9968;SDS011;5025;48.890;9.278;2023-08-06T06:36:10;1.20;;;1.20;;
9968;SDS011;5025;48.890;9.278;2023-08-06T06:38:36;1.57;;;1.47;;
9968;SDS011;5025;48.890;9.278;2023-08-06T06:41:01;1.60;;;1.50;;
9968;SDS011;5025;48.890;9.278;2023-08-06T06:43:28;1.20;;;1.20;;
9968;SDS011;5025;48.890;9.278;2023-08-06T06:45:55;1.43;;;1.30;;
9968;SDS011;5025;48.890;9.278;2023-08-06T06:48:22;1.00;;;1.00;;
9968;SDS011;5025;48.890;9.278;2023-08-06T06:50:47;1.50;;;1.20;;
9968;SDS011;5025;48.890;9.278;2023-08-06T06:53:13;0.97;;;0.97;;
9968;SDS011;5025;48.890;9.278;2023-08-06T06:55:38;2.57;;;1.17;;
9968;SDS011;5025;48.890;9.278;2023-08-06T06:58:04;0.90;;;0.90;;
9968;SDS011;5025;48.890;9.278;2023-08-06T07:00:29;1.23;;;0.93;;
9968;SDS011;5025;48.890;9.278;2023-08-06T07:02:54;0.93;;;0.93;;
9968;SDS011;5025;48.890;9.278;2023-08-06T07:05:19;2.43;;;0.90;;
9968;SDS011;5025;48.890;9.278;2023-08-06T07:07:45;1.63;;;1.00;;
9968;SDS011;5025;48.890;9.278;2023-08-06T07:10:10;1.27;;;0.90;;
9968;SDS011;5025;48.890;9.278;2023-08-06T07:12:36;0.77;;;0.77;;
9968;SDS011;5025;48.890;9.278;2023-08-06T07:15:02;0.80;;;0.80;;
9968;SDS011;5025;48.890;9.278;2023-08-06T07:17:29;1.30;;;0.90;;
9968;SDS011;5025;48.890;9.278;2023-08-06T07:19:55;1.40;;;1.13;;
9968;SDS011;5025;48.890;9.278;2023-08-06T07:22:20;0.80;;;0.80;;
9968;SDS011;5025;48.890;9.278;2023-08-06T07:24:45;1.27;;;1.00;;
9968;SDS011;5025;48.890;9.278;2023-08-06T07:27:10;0.80;;;0.80;;
9968;SDS011;5025;48.890;9.278;2023-08-06T07:29:36;1.10;;;0.77;;
9968;SDS011;5025;48.890;9.278;2023-08-06T07:32:01;0.73;;;0.73;;
9968;SDS011;5025;48.890;9.278;2023-08-06T07:34:26;0.63;;;0.63;;
9968;SDS011;5025;48.890;9.278;2023-08-06T07:36:51;0.70;;;0.70;;
9968;SDS011;5025;48.890;9.278;2023-08-06T07:39:17;0.90;;;0.90;;
9968;SDS011;5025;48.890;9.278;2023-08-06T07:41:42;0.70;;;0.70;;
9968;SDS011;5025;48.890;9.278;2023-08-06T07:44:07;1.13;;;0.70;;
9968;SDS011;5025;48.890;9.278;2023-08-06T07:46:32;1.03;;;0.90;;
9968;SDS011;5025;48.890;9.278;2023-08-06T07:48:58;0.90;;;0.90;;
9968;SDS011;5025;48.890;9.278;2023-08-06T07:51:23;1.03;;;0.67;;
9968;SDS011;5025;48.890;9.278;2023-08-06T07:53:48;0.90;;;0.90;;
9968;SDS011;5025;48.890;9.278;2023-08-06T07:56:13;0.80;;;0.80;;
9968;SDS011;5025;48.890;9.278;2023-08-06T07:58:39;0.80;;;0.80;;
9968;SDS011;5025;48.890;9.278;2023-08-06T08:01:05;0.80;;;0.80;;
9968;SDS011;5025;48.890;9.278;2023-08-06T08:03:31;0.70;;;0.70;;
9968;SDS011;5025;48.890;9.278;2023-08-06T08:05:56;0.97;;;0.67;;
9968;SDS011;5025;48.890;9.278;2023-08-06T08:08:22;1.13;;;0.80;;
9968;SDS011;5025;48.890;9.278;2023-08-06T08:10:48;0.60;;;0.60;;
9968;SDS011;5025;48.890;9.278;2023-08-06T08:13:13;0.70;;;0.70;;
9968;SDS011;5025;48.890;9.278;2023-08-06T08:15:38;1.13;;;0.60;;
9968;SDS011;5025;48.890;9.278;2023-08-06T08:18:03;0.70;;;0.70;;
9968;SDS011;5025;48.890;9.278;2023-08-06T08:20:29;0.60;;;0.50;;
9968;SDS011;5025;48.890;9.278;2023-08-06T08:22:57;0.87;;;0.63;;
9968;SDS011;5025;48.890;9.278;2023-08-06T08:25:23;0.93;;;0.93;;
9968;SDS011;5025;48.890;9.278;2023-08-06T08:27:48;0.80;;;0.80;;
9968;SDS011;5025;48.890;9.278;2023-08-06T08:30:14;0.50;;;0.50;;
9968;SDS011;5025;48.890;9.278;2023-08-06T08:32:39;0.40;;;0.40;;
9968;SDS011;5025;48.890;9.278;2023-08-06T08:35:04;1.10;;;0.60;;
9968;SDS011;5025;48.890;9.278;2023-08-06T08:37:30;0.77;;;0.60;;
9968;SDS011;5025;48.890;9.278;2023-08-06T08:39:55;0.40;;;0.40;;
9968;SDS011;5025;48.890;9.278;2023-08-06T08:42:20;0.30;;;0.30;;
9968;SDS011;5025;48.890;9.278;2023-08-06T08:44:46;0.40;;;0.40;;
9968;SDS011;5025;48.890;9.278;2023-08-06T08:47:11;0.47;;;0.47;;
9968;SDS011;5025;48.890;9.278;2023-08-06T08:49:37;0.20;;;0.20;;
9968;SDS011;5025;48.890;9.278;2023-08-06T08:52:04;0.50;;;0.50;;
9968;SDS011;5025;48.890;9.278;2023-08-06T08:54:34;0.43;;;0.40;;
9968;SDS011;5025;48.890;9.278;2023-08-06T08:57:00;0.40;;;0.40;;
9968;SDS011;5025;48.890;9.278;2023-08-06T08:59:25;0.53;;;0.40;;
9968;SDS011;5025;48.890;9.278;2023-08-06T09:01:51;0.27;;;0.27;;
9968;SDS011;5025;48.890;9.278;2023-08-06T09:04:18;0.30;;;0.30;;
9968;SDS011;5025;48.890;9.278;2023-08-06T09:06:46;0.30;;;0.30;;
9968;SDS011;5025;48.890;9.278;2023-08-06T09:09:12;0.17;;;0.17;;
9968;SDS011;5025;48.890;9.278;2023-08-06T09:11:44;0.30;;;0.27;;
9968;SDS011;5025;48.890;9.278;2023-08-06T09:14:10;0.10;;;0.10;;
9968;SDS011;5025;48.890;9.278;2023-08-06T09:16:36;0.40;;;0.30;;
9968;SDS011;5025;48.890;9.278;2023-08-06T09:19:08;0.23;;;0.20;;
9968;SDS011;5025;48.890;9.278;2023-08-06T09:21:38;0.20;;;0.20;;
9968;SDS011;5025;48.890;9.278;2023-08-06T09:24:10;0.20;;;0.20;;
9968;SDS011;5025;48.890;9.278;2023-08-06T09:26:37;0.40;;;0.40;;
9968;SDS011;5025;48.890;9.278;2023-08-06T09:29:04;0.20;;;0.20;;
9968;SDS011;5025;48.890;9.278;2023-08-06T09:31:40;0.20;;;0.20;;
9968;SDS011;5025;48.890;9.278;2023-08-06T09:34:06;0.30;;;0.30;;
9968;SDS011;5025;48.890;9.278;2023-08-06T09:36:39;0.20;;;0.20;;
9968;SDS011;5025;48.890;9.278;2023-08-06T09:39:12;0.30;;;0.20;;
9968;SDS011;5025;48.890;9.278;2023-08-06T09:41:38;0.20;;;0.20;;
9968;SDS011;5025;48.890;9.278;2023-08-06T09:44:04;0.40;;;0.17;;
9968;SDS011;5025;48.890;9.278;2023-08-06T09:46:29;0.20;;;0.20;;
9968;SDS011;5025;48.890;9.278;2023-08-06T09:48:57;0.17;;;0.13;;
9968;SDS011;5025;48.890;9.278;2023-08-06T09:51:22;1.13;;;0.20;;
9968;SDS011;5025;48.890;9.278;2023-08-06T09:53:47;0.30;;;0.30;;
9968;SDS011;5025;48.890;9.278;2023-08-06T09:56:13;0.20;;;0.20;;
9968;SDS011;5025;48.890;9.278;2023-08-06T09:58:41;0.10;;;0.10;;
9968;SDS011;5025;48.890;9.278;2023-08-06T10:01:06;0.37;;;0.23;;
9968;SDS011;5025;48.890;9.278;2023-08-06T10:03:33;0.30;;;0.30;;
9968;SDS011;5025;48.890;9.278;2023-08-06T10:05:59;0.10;;;0.10;;
9968;SDS011;5025;48.890;9.278;2023-08-06T10:08:27;0.10;;;0.10;;
9968;SDS011;5025;48.890;9.278;2023-08-06T10:10:52;0.57;;;0.20;;
9968;SDS011;5025;48.890;9.278;2023-08-06T10:13:18;0.20;;;0.20;;
9968;SDS011;5025;48.890;9.278;2023-08-06T10:15:47;0.20;;;0.20;;
9968;SDS011;5025;48.890;9.278;2023-08-06T10:18:13;0.20;;;0.20;;
9968;SDS011;5025;48.890;9.278;2023-08-06T10:20:42;0.63;;;0.30;;
9968;SDS011;5025;48.890;9.278;2023-08-06T10:23:08;0.20;;;0.20;;
9968;SDS011;5025;48.890;9.278;2023-08-06T10:25:34;0.20;;;0.20;;
9968;SDS011;5025;48.890;9.278;2023-08-06T10:28:00;0.20;;;0.20;;
9968;SDS011;5025;48.890;9.278;2023-08-06T10:30:32;0.57;;;0.57;;
9968;SDS011;5025;48.890;9.278;2023-08-06T10:32:59;0.37;;;0.33;;
9968;SDS011;5025;48.890;9.278;2023-08-06T10:37:59;0.10;;;0.10;;
9968;SDS011;5025;48.890;9.278;2023-08-06T10:40:28;0.10;;;0.10;;
9968;SDS011;5025;48.890;9.278;2023-08-06T10:42:55;0.10;;;0.10;;
9968;SDS011;5025;48.890;9.278;2023-08-06T10:45:23;0.17;;;0.17;;
9968;SDS011;5025;48.890;9.278;2023-08-06T10:47:53;0.37;;;0.37;;
9968;SDS011;5025;48.890;9.278;2023-08-06T10:50:18;0.30;;;0.30;;
9968;SDS011;5025;48.890;9.278;2023-08-06T10:52:44;0.30;;;0.30;;
9968;SDS011;5025;48.890;9.278;2023-08-06T10:55:10;0.20;;;0.20;;
9968;SDS011;5025;48.890;9.278;2023-08-06T10:57:36;0.10;;;0.10;;
9968;SDS011;5025;48.890;9.278;2023-08-06T11:00:01;0.63;;;0.20;;
9968;SDS011;5025;48.890;9.278;2023-08-06T11:02:29;0.37;;;0.37;;
9968;SDS011;5025;48.890;9.278;2023-08-06T11:04:58;0.40;;;0.40;;
9968;SDS011;5025;48.890;9.278;2023-08-06T11:07:35;0.30;;;0.30;;
9968;SDS011;5025;48.890;9.278;2023-08-06T11:10:05;0.37;;;0.37;;
9968;SDS011;5025;48.890;9.278;2023-08-06T11:12:32;0.70;;;0.70;;
9968;SDS011;5025;48.890;9.278;2023-08-06T11:14:58;0.60;;;0.60;;
9968;SDS011;5025;48.890;9.278;2023-08-06T11:17:23;0.60;;;0.60;;
9968;SDS011;5025;48.890;9.278;2023-08-06T11:19:49;0.60;;;0.60;;
9968;SDS011;5025;48.890;9.278;2023-08-06T11:22:15;1.03;;;0.70;;
9968;SDS011;5025;48.890;9.278;2023-08-06T11:24:42;0.60;;;0.60;;
9968;SDS011;5025;48.890;9.278;2023-08-06T11:27:11;0.67;;;0.67;;
9968;SDS011;5025;48.890;9.278;2023-08-06T11:29:43;0.70;;;0.70;;
9968;SDS011;5025;48.890;9.278;2023-08-06T11:32:09;1.03;;;0.93;;
9968;SDS011;5025;48.890;9.278;2023-08-06T11:34:35;0.60;;;0.60;;
9968;SDS011;5025;48.890;9.278;2023-08-06T11:37:02;0.70;;;0.70;;
9968;SDS011;5025;48.890;9.278;2023-08-06T11:39:30;0.97;;;0.97;;
9968;SDS011;5025;48.890;9.278;2023-08-06T11:42:03;0.70;;;0.70;;
9968;SDS011;5025;48.890;9.278;2023-08-06T11:44:32;0.90;;;0.90;;
9968;SDS011;5025;48.890;9.278;2023-08-06T11:47:00;0.93;;;0.93;;
9968;SDS011;5025;48.890;9.278;2023-08-06T11:52:09;1.10;;;1.10;;
9968;SDS011;5025;48.890;9.278;2023-08-06T11:54:36;1.00;;;1.00;;
9968;SDS011;5025;48.890;9.278;2023-08-06T11:57:07;2.13;;;1.87;;
9968;SDS011;5025;48.890;9.278;2023-08-06T11:59:33;1.20;;;1.20;;
9968;SDS011;5025;48.890;9.278;2023-08-06T12:02:02;1.17;;;1.10;;
9968;SDS011;5025;48.890;9.278;2023-08-06T12:04:30;3.27;;;1.63;;
9968;SDS011;5025;48.890;9.278;2023-08-06T12:06:55;1.73;;;1.40;;
9968;SDS011;5025;48.890;9.278;2023-08-06T12:09:29;1.50;;;1.40;;
9968;SDS011;5025;48.890;9.278;2023-08-06T12:11:55;1.73;;;1.60;;
9968;SDS011;5025;48.890;9.278;2023-08-06T12:14:20;1.77;;;1.50;;
9968;SDS011;5025;48.890;9.278;2023-08-06T12:16:45;2.10;;;1.70;;
9968;SDS011;5025;48.890;9.278;2023-08-06T12:19:10;2.73;;;2.07;;
9968;SDS011;5025;48.890;9.278;2023-08-06T12:21:36;1.90;;;1.80;;
9968;SDS011;5025;48.890;9.278;2023-08-06T12:24:01;2.10;;;1.90;;
9968;SDS011;5025;48.890;9.278;2023-08-06T12:26:26;3.47;;;2.10;;
9968;SDS011;5025;48.890;9.278;2023-08-06T12:28:51;2.10;;;2.00;;
9968;SDS011;5025;48.890;9.278;2023-08-06T12:31:19;2.03;;;1.77;;
9968;SDS011;5025;48.890;9.278;2023-08-06T12:33:45;2.77;;;2.13;;
9968;SDS011;5025;48.890;9.278;2023-08-06T12:36:10;2.40;;;1.90;;
9968;SDS011;5025;48.890;9.278;2023-08-06T12:38:35;2.23;;;2.10;;
9968;SDS011;5025;48.890;9.278;2023-08-06T12:41:00;4.30;;;2.20;;
9968;SDS011;5025;48.890;9.278;2023-08-06T12:43:26;2.53;;;2.20;;
9968;SDS011;5025;48.890;9.278;2023-08-06T12:45:51;2.80;;;2.50;;
9968;SDS011;5025;48.890;9.278;2023-08-06T12:48:16;2.30;;;2.10;;
9968;SDS011;5025;48.890;9.278;2023-08-06T12:50:42;3.23;;;2.30;;
9968;SDS011;5025;48.890;9.278;2023-08-06T12:53:07;2.30;;;2.20;;
9968;SDS011;5025;48.890;9.278;2023-08-06T12:55:32;2.17;;;2.00;;
9968;SDS011;5025;48.890;9.278;2023-08-06T12:57:57;1.90;;;1.80;;
9968;SDS011;5025;48.890;9.278;2023-08-06T13:00:23;1.63;;;1.53;;
9968;SDS011;5025;48.890;9.278;2023-08-06T13:02:48;1.70;;;1.60;;
9968;SDS011;5025;48.890;9.278;2023-08-06T13:05:13;2.00;;;1.67;;
9968;SDS011;5025;48.890;9.278;2023-08-06T13:07:38;2.03;;;1.50;;
9968;SDS011;5025;48.890;9.278;2023-08-06T13:10:04;1.60;;;1.50;;
9968;SDS011;5025;48.890;9.278;2023-08-06T13:12:29;1.70;;;1.60;;
9968;SDS011;5025;48.890;9.278;2023-08-06T13:14:55;2.63;;;1.63;;
9968;SDS011;5025;48.890;9.278;2023-08-06T13:17:22;1.70;;;1.60;;
9968;SDS011;5025;48.890;9.278;2023-08-06T13:19:48;2.83;;;1.53;;
9968;SDS011;5025;48.890;9.278;2023-08-06T13:22:14;1.37;;;1.37;;
9968;SDS011;5025;48.890;9.278;2023-08-06T13:24:39;1.70;;;1.60;;
9968;SDS011;5025;48.890;9.278;2023-08-06T13:27:04;1.53;;;1.43;;
9968;SDS011;5025;48.890;9.278;2023-08-06T13:29:29;2.20;;;1.53;;
9968;SDS011;5025;48.890;9.278;2023-08-06T13:31:55;1.47;;;1.37;;
9968;SDS011;5025;48.890;9.278;2023-08-06T13:34:20;1.60;;;1.20;;
9968;SDS011;5025;48.890;9.278;2023-08-06T13:36:45;1.10;;;1.10;;
9968;SDS011;5025;48.890;9.278;2023-08-06T13:39:10;1.10;;;1.10;;
9968;SDS011;5025;48.890;9.278;2023-08-06T13:41:37;1.10;;;1.10;;
9968;SDS011;5025;48.890;9.278;2023-08-06T13:44:04;0.90;;;0.90;;
9968;SDS011;5025;48.890;9.278;2023-08-06T13:46:29;0.97;;;0.97;;
9968;SDS011;5025;48.890;9.278;2023-08-06T13:48:54;0.90;;;0.90;;
9968;SDS011;5025;48.890;9.278;2023-08-06T13:51:20;1.33;;;0.70;;
9968;SDS011;5025;48.890;9.278;2023-08-06T13:53:45;0.73;;;0.73;;
9968;SDS011;5025;48.890;9.278;2023-08-06T13:56:11;0.83;;;0.83;;
9968;SDS011;5025;48.890;9.278;2023-08-06T13:58:36;0.90;;;0.90;;
9968;SDS011;5025;48.890;9.278;2023-08-06T14:01:02;0.93;;;0.90;;
9968;SDS011;5025;48.890;9.278;2023-08-06T14:03:28;1.13;;;1.00;;
9968;SDS011;5025;48.890;9.278;2023-08-06T14:05:53;1.80;;;0.90;;
9968;SDS011;5025;48.890;9.278;2023-08-06T14:08:21;0.70;;;0.70;;
9968;SDS011;5025;48.890;9.278;2023-08-06T14:10:47;0.90;;;0.90;;
9968;SDS011;5025;48.890;9.278;2023-08-06T14:13:12;0.70;;;0.70;;
9968;SDS011;5025;48.890;9.278;2023-08-06T14:15:37;0.70;;;0.70;;
9968;SDS011;5025;48.890;9.278;2023-08-06T14:18:06;0.90;;;0.90;;
9968;SDS011;5025;48.890;9.278;2023-08-06T14:20:35;0.83;;;0.83;;
9968;SDS011;5025;48.890;9.278;2023-08-06T14:23:00;0.80;;;0.80;;
9968;SDS011;5025;48.890;9.278;2023-08-06T14:25:26;0.83;;;0.83;;
9968;SDS011;5025;48.890;9.278;2023-08-06T14:27:51;0.80;;;0.80;;
9968;SDS011;5025;48.890;9.278;2023-08-06T14:30:16;1.70;;;1.10;;
9968;SDS011;5025;48.890;9.278;2023-08-06T14:32:42;1.10;;;0.97;;
9968;SDS011;5025;48.890;9.278;2023-08-06T14:35:07;0.90;;;0.90;;
9968;SDS011;5025;48.890;9.278;2023-08-06T14:37:32;1.57;;;1.03;;
9968;SDS011;5025;48.890;9.278;2023-08-06T14:39:58;1.03;;;1.03;;
9968;SDS011;5025;48.890;9.278;2023-08-06T14:42:23;1.93;;;1.27;;
9968;SDS011;5025;48.890;9.278;2023-08-06T14:44:48;1.30;;;1.20;;
9968;SDS011;5025;48.890;9.278;2023-08-06T14:47:13;2.10;;;1.10;;
9968;SDS011;5025;48.890;9.278;2023-08-06T14:49:39;1.23;;;1.10;;
9968;SDS011;5025;48.890;9.278;2023-08-06T14:52:05;2.20;;;1.33;;
9968;SDS011;5025;48.890;9.278;2023-08-06T14:54:31;1.87;;;1.23;;
9968;SDS011;5025;48.890;9.278;2023-08-06T14:56:56;3.70;;;1.20;;
9968;SDS011;5025;48.890;9.278;2023-08-06T14:59:21;1.63;;;1.03;;
9968;SDS011;5025;48.890;9.278;2023-08-06T15:01:47;1.77;;;1.10;;
9968;SDS011;5025;48.890;9.278;2023-08-06T15:04:12;1.27;;;1.10;;
9968;SDS011;5025;48.890;9.278;2023-08-06T15:06:37;1.00;;;1.00;;
9968;SDS011;5025;48.890;9.278;2023-08-06T15:09:03;1.20;;;1.20;;
9968;SDS011;5025;48.890;9.278;2023-08-06T15:11:28;1.80;;;1.20;;
9968;SDS011;5025;48.890;9.278;2023-08-06T15:13:53;1.40;;;1.30;;
9968;SDS011;5025;48.890;9.278;2023-08-06T15:16:18;1.27;;;1.20;;